Pays
Station

 

Conditions  météo  pour  New Haven, Tweed-New Haven Airport  -  Etats-Unis    Etats-Unis

  
13 °C
    
 
 

METAR pour New Haven, Tweed-New Haven Airport :

KHVN 041653Z 01013G18KT 10SM FEW029 13/04 A3001 RMK AO2 SLP160 T01280044

 

Voici le bulletin pour New Haven, Tweed-New Haven Airport - Etats-Unis.
 
Le bulletin a été fait il y a 38 minutes, à 16:53 UTC .
Le vent soufflait à la vitesse de 6.7 mètres par seconde avec des rafales jusqu'à 9.3 mètres par seconde de Nord (010°).
 
La température était de 13 °C, avec un point de rosée à 4 °C.
La pression atmosphérique était de 1016 hPa.
L'humidité relative était de 54.3%.
 
Il y avait 1 à 2/8ème de nébulosité à une hauteur de 884 mètres.
 
La visibilité globale était de 16.1 kilomètres.
 

 
 
 

Pays :   A   B   C   D   E   F   G   H   I   J   K   L   M   N   O   P   Q   R   S   T   U   V   W   Y   Z

 

Partenaires :  Info Météo avec Met'info
Météo Marine avec MeteoMarine.net
Infos Site  |  Infos Légales  |  Crédits  |  Confidentialité
Contactez-nous  |  Ajouter aux favoris
© 2013-2020 METAR - Tous droits réservés